sensor_id;sensor_type;location;lat;lon;timestamp;pressure;altitude;pressure_sealevel;temperature
12126;BMP180;6126;57.908;16.490;2023-01-28T00:02:13;102477.00;;;-3.39
12126;BMP180;6126;57.908;16.490;2023-01-28T00:04:39;102485.63;;;-3.37
12126;BMP180;6126;57.908;16.490;2023-01-28T00:07:05;102479.88;;;-3.32
12126;BMP180;6126;57.908;16.490;2023-01-28T00:09:31;102474.03;;;-3.28
12126;BMP180;6126;57.908;16.490;2023-01-28T00:11:57;102480.97;;;-3.25
12126;BMP180;6126;57.908;16.490;2023-01-28T00:14:23;102486.16;;;-3.24
12126;BMP180;6126;57.908;16.490;2023-01-28T00:16:49;102481.09;;;-3.22
12126;BMP180;6126;57.908;16.490;2023-01-28T00:19:15;102475.22;;;-3.20
12126;BMP180;6126;57.908;16.490;2023-01-28T00:21:41;102472.72;;;-3.18
12126;BMP180;6126;57.908;16.490;2023-01-28T00:24:07;102462.63;;;-3.15
12126;BMP180;6126;57.908;16.490;2023-01-28T00:26:34;102466.13;;;-3.13
12126;BMP180;6126;57.908;16.490;2023-01-28T00:29:01;102468.72;;;-3.12
12126;BMP180;6126;57.908;16.490;2023-01-28T00:31:28;102459.38;;;-3.11
12126;BMP180;6126;57.908;16.490;2023-01-28T00:33:55;102453.44;;;-3.10
12126;BMP180;6126;57.908;16.490;2023-01-28T00:36:25;102451.81;;;-3.08
12126;BMP180;6126;57.908;16.490;2023-01-28T00:38:57;102448.44;;;-3.08
12126;BMP180;6126;57.908;16.490;2023-01-28T00:41:26;102447.59;;;-3.07
12126;BMP180;6126;57.908;16.490;2023-01-28T00:43:53;102456.09;;;-3.08
12126;BMP180;6126;57.908;16.490;2023-01-28T00:46:20;102451.09;;;-3.05
12126;BMP180;6126;57.908;16.490;2023-01-28T00:48:46;102444.25;;;-3.06
12126;BMP180;6126;57.908;16.490;2023-01-28T00:51:15;102452.88;;;-3.04
12126;BMP180;6126;57.908;16.490;2023-01-28T00:53:47;102440.00;;;-3.05
12126;BMP180;6126;57.908;16.490;2023-01-28T00:56:16;102434.03;;;-3.06
12126;BMP180;6126;57.908;16.490;2023-01-28T00:58:43;102439.03;;;-3.08
12126;BMP180;6126;57.908;16.490;2023-01-28T01:01:13;102426.13;;;-3.11
12126;BMP180;6126;57.908;16.490;2023-01-28T01:03:39;102425.19;;;-3.13
12126;BMP180;6126;57.908;16.490;2023-01-28T01:06:07;102425.19;;;-3.13
12126;BMP180;6126;57.908;16.490;2023-01-28T01:08:34;102425.19;;;-3.13
12126;BMP180;6126;57.908;16.490;2023-01-28T01:11:04;102420.88;;;-3.14
12126;BMP180;6126;57.908;16.490;2023-01-28T01:13:31;102404.63;;;-3.16
12126;BMP180;6126;57.908;16.490;2023-01-28T01:16:15;102403.63;;;-3.20
12126;BMP180;6126;57.908;16.490;2023-01-28T01:18:41;102400.91;;;-3.24
12126;BMP180;6126;57.908;16.490;2023-01-28T01:21:15;102398.34;;;-3.24
12126;BMP180;6126;57.908;16.490;2023-01-28T01:23:42;102393.94;;;-3.28
12126;BMP180;6126;57.908;16.490;2023-01-28T01:26:09;102395.69;;;-3.27
12126;BMP180;6126;57.908;16.490;2023-01-28T01:28:36;102386.34;;;-3.27
12126;BMP180;6126;57.908;16.490;2023-01-28T01:31:09;102385.47;;;-3.27
12126;BMP180;6126;57.908;16.490;2023-01-28T01:33:35;102390.59;;;-3.27
12126;BMP180;6126;57.908;16.490;2023-01-28T01:36:02;102387.19;;;-3.26
12126;BMP180;6126;57.908;16.490;2023-01-28T01:38:28;102385.56;;;-3.24
12126;BMP180;6126;57.908;16.490;2023-01-28T01:40:59;102379.63;;;-3.23
12126;BMP180;6126;57.908;16.490;2023-01-28T01:46:12;102372.69;;;-3.27
12126;BMP180;6126;57.908;16.490;2023-01-28T01:48:40;102369.31;;;-3.26
12126;BMP180;6126;57.908;16.490;2023-01-28T01:51:14;102365.06;;;-3.26
12126;BMP180;6126;57.908;16.490;2023-01-28T01:53:46;102371.91;;;-3.25
12126;BMP180;6126;57.908;16.490;2023-01-28T01:56:18;102378.81;;;-3.22
12126;BMP180;6126;57.908;16.490;2023-01-28T01:58:49;102366.16;;;-3.19
12126;BMP180;6126;57.908;16.490;2023-01-28T02:01:22;102365.34;;;-3.18
12126;BMP180;6126;57.908;16.490;2023-01-28T02:04:17;102368.75;;;-3.18
12126;BMP180;6126;57.908;16.490;2023-01-28T02:06:46;102360.34;;;-3.15
12126;BMP180;6126;57.908;16.490;2023-01-28T02:09:30;102345.00;;;-3.15
12126;BMP180;6126;57.908;16.490;2023-01-28T02:12:27;102350.97;;;-3.15
12126;BMP180;6126;57.908;16.490;2023-01-28T02:15:02;102333.81;;;-3.17
12126;BMP180;6126;57.908;16.490;2023-01-28T02:17:29;102338.06;;;-3.18
12126;BMP180;6126;57.908;16.490;2023-01-28T02:20:09;102338.94;;;-3.17
12126;BMP180;6126;57.908;16.490;2023-01-28T02:26:04;102338.94;;;-3.17
12126;BMP180;6126;57.908;16.490;2023-01-28T02:34:00;102315.06;;;-3.18
12126;BMP180;6126;57.908;16.490;2023-01-28T02:36:52;102328.72;;;-3.17
12126;BMP180;6126;57.908;16.490;2023-01-28T02:39:29;102314.19;;;-3.18
12126;BMP180;6126;57.908;16.490;2023-01-28T02:42:10;102321.03;;;-3.17
12126;BMP180;6126;57.908;16.490;2023-01-28T02:44:38;102314.19;;;-3.18
12126;BMP180;6126;57.908;16.490;2023-01-28T02:47:12;102305.59;;;-3.20
12126;BMP180;6126;57.908;16.490;2023-01-28T02:50:02;102315.03;;;-3.19
12126;BMP180;6126;57.908;16.490;2023-01-28T02:52:58;102309.09;;;-3.18
12126;BMP180;6126;57.908;16.490;2023-01-28T02:58:41;102290.22;;;-3.22
12126;BMP180;6126;57.908;16.490;2023-01-28T03:01:38;102290.97;;;-3.24
12126;BMP180;6126;57.908;16.490;2023-01-28T03:07:22;102288.44;;;-3.24
12126;BMP180;6126;57.908;16.490;2023-01-28T03:09:52;102275.56;;;-3.26
12126;BMP180;6126;57.908;16.490;2023-01-28T03:12:26;102255.13;;;-3.26
12126;BMP180;6126;57.908;16.490;2023-01-28T03:15:30;102270.47;;;-3.26
12126;BMP180;6126;57.908;16.490;2023-01-28T03:18:35;102270.53;;;-3.24
12126;BMP180;6126;57.908;16.490;2023-01-28T03:24:20;102266.31;;;-3.22
12126;BMP180;6126;57.908;16.490;2023-01-28T03:27:18;102266.22;;;-3.25
12126;BMP180;6126;57.908;16.490;2023-01-28T03:30:13;102260.19;;;-3.27
12126;BMP180;6126;57.908;16.490;2023-01-28T03:32:59;102255.00;;;-3.29
12126;BMP180;6126;57.908;16.490;2023-01-28T03:35:46;102246.41;;;-3.31
12126;BMP180;6126;57.908;16.490;2023-01-28T03:38:31;102236.19;;;-3.31
12126;BMP180;6126;57.908;16.490;2023-01-28T03:41:11;102238.72;;;-3.32
12126;BMP180;6126;57.908;16.490;2023-01-28T03:43:37;102232.69;;;-3.33
12126;BMP180;6126;57.908;16.490;2023-01-28T03:46:03;102236.16;;;-3.32
12126;BMP180;6126;57.908;16.490;2023-01-28T03:48:31;102233.69;;;-3.29
12126;BMP180;6126;57.908;16.490;2023-01-28T03:50:57;102227.72;;;-3.30
12126;BMP180;6126;57.908;16.490;2023-01-28T03:53:27;102216.59;;;-3.30
12126;BMP180;6126;57.908;16.490;2023-01-28T03:55:54;102210.53;;;-3.34
12126;BMP180;6126;57.908;16.490;2023-01-28T03:58:22;102207.13;;;-3.33
12126;BMP180;6126;57.908;16.490;2023-01-28T04:00:52;102212.22;;;-3.34
12126;BMP180;6126;57.908;16.490;2023-01-28T04:03:20;102221.63;;;-3.33
12126;BMP180;6126;57.908;16.490;2023-01-28T04:08:24;102214.88;;;-3.31
12126;BMP180;6126;57.908;16.490;2023-01-28T04:10:51;102201.22;;;-3.32
12126;BMP180;6126;57.908;16.490;2023-01-28T04:13:17;102201.25;;;-3.30
12126;BMP180;6126;57.908;16.490;2023-01-28T04:15:44;102191.03;;;-3.30
12126;BMP180;6126;57.908;16.490;2023-01-28T04:18:10;102194.53;;;-3.28
12126;BMP180;6126;57.908;16.490;2023-01-28T04:20:37;102197.91;;;-3.29
12126;BMP180;6126;57.908;16.490;2023-01-28T04:23:04;102199.53;;;-3.31
12126;BMP180;6126;57.908;16.490;2023-01-28T04:25:31;102191.88;;;-3.31
12126;BMP180;6126;57.908;16.490;2023-01-28T04:27:57;102186.69;;;-3.33
12126;BMP180;6126;57.908;16.490;2023-01-28T04:30:24;102184.19;;;-3.31
12126;BMP180;6126;57.908;16.490;2023-01-28T04:32:50;102166.41;;;-3.28
12126;BMP180;6126;57.908;16.490;2023-01-28T04:35:18;102163.84;;;-3.28
12126;BMP180;6126;57.908;16.490;2023-01-28T04:37:44;102165.63;;;-3.26
12126;BMP180;6126;57.908;16.490;2023-01-28T04:40:12;102157.13;;;-3.26
12126;BMP180;6126;57.908;16.490;2023-01-28T04:42:38;102141.81;;;-3.25
12126;BMP180;6126;57.908;16.490;2023-01-28T04:45:05;102138.44;;;-3.24
12126;BMP180;6126;57.908;16.490;2023-01-28T04:47:31;102131.63;;;-3.23
12126;BMP180;6126;57.908;16.490;2023-01-28T04:49:57;102126.53;;;-3.23
12126;BMP180;6126;57.908;16.490;2023-01-28T04:52:23;102121.41;;;-3.23
12126;BMP180;6126;57.908;16.490;2023-01-28T04:54:49;102129.09;;;-3.23
12126;BMP180;6126;57.908;16.490;2023-01-28T04:57:14;102131.63;;;-3.23
12126;BMP180;6126;57.908;16.490;2023-01-28T04:59:41;102121.47;;;-3.22
12126;BMP180;6126;57.908;16.490;2023-01-28T05:02:07;102112.91;;;-3.22
12126;BMP180;6126;57.908;16.490;2023-01-28T05:04:33;102106.19;;;-3.20
12126;BMP180;6126;57.908;16.490;2023-01-28T05:06:58;102101.13;;;-3.19
12126;BMP180;6126;57.908;16.490;2023-01-28T05:09:24;102096.03;;;-3.17
12126;BMP180;6126;57.908;16.490;2023-01-28T05:11:50;102087.59;;;-3.15
12126;BMP180;6126;57.908;16.490;2023-01-28T05:14:16;102086.75;;;-3.15
12126;BMP180;6126;57.908;16.490;2023-01-28T05:16:42;102079.94;;;-3.15
12126;BMP180;6126;57.908;16.490;2023-01-28T05:19:08;102073.13;;;-3.14
12126;BMP180;6126;57.908;16.490;2023-01-28T05:21:34;102073.19;;;-3.13
12126;BMP180;6126;57.908;16.490;2023-01-28T05:24:00;102062.13;;;-3.12
12126;BMP180;6126;57.908;16.490;2023-01-28T05:26:26;102066.44;;;-3.11
12126;BMP180;6126;57.908;16.490;2023-01-28T05:28:51;102072.41;;;-3.10
12126;BMP180;6126;57.908;16.490;2023-01-28T05:31:17;102065.69;;;-3.08
12126;BMP180;6126;57.908;16.490;2023-01-28T05:33:44;102058.03;;;-3.07
12126;BMP180;6126;57.908;16.490;2023-01-28T05:36:09;102066.56;;;-3.07
12126;BMP180;6126;57.908;16.490;2023-01-28T05:38:35;102063.22;;;-3.06
12126;BMP180;6126;57.908;16.490;2023-01-28T05:41:01;102048.66;;;-3.07
12126;BMP180;6126;57.908;16.490;2023-01-28T05:43:27;102048.66;;;-3.07
12126;BMP180;6126;57.908;16.490;2023-01-28T05:45:53;102064.00;;;-3.07
12126;BMP180;6126;57.908;16.490;2023-01-28T05:48:19;102075.16;;;-3.05
12126;BMP180;6126;57.908;16.490;2023-01-28T05:50:48;102064.13;;;-3.04
12126;BMP180;6126;57.908;16.490;2023-01-28T05:53:14;102076.09;;;-3.03
12126;BMP180;6126;57.908;16.490;2023-01-28T05:55:40;102072.69;;;-3.02
12126;BMP180;6126;57.908;16.490;2023-01-28T05:58:05;102056.56;;;-3.01
12126;BMP180;6126;57.908;16.490;2023-01-28T06:00:31;102054.03;;;-2.99
12126;BMP180;6126;57.908;16.490;2023-01-28T06:02:57;102050.66;;;-2.98
12126;BMP180;6126;57.908;16.490;2023-01-28T06:05:23;102054.09;;;-2.98
12126;BMP180;6126;57.908;16.490;2023-01-28T06:07:49;102061.78;;;-2.96
12126;BMP180;6126;57.908;16.490;2023-01-28T06:10:16;102054.94;;;-2.97
12126;BMP180;6126;57.908;16.490;2023-01-28T06:12:43;102056.59;;;-2.99
12126;BMP180;6126;57.908;16.490;2023-01-28T06:15:10;102059.19;;;-2.98
12126;BMP180;6126;57.908;16.490;2023-01-28T06:17:36;102048.13;;;-2.97
12126;BMP180;6126;57.908;16.490;2023-01-28T06:20:03;102045.59;;;-2.97
12126;BMP180;6126;57.908;16.490;2023-01-28T06:22:28;102046.56;;;-2.93
12126;BMP180;6126;57.908;16.490;2023-01-28T06:24:54;102045.78;;;-2.91
12126;BMP180;6126;57.908;16.490;2023-01-28T06:27:20;102033.00;;;-2.91
12126;BMP180;6126;57.908;16.490;2023-01-28T06:29:46;102040.78;;;-2.88
12126;BMP180;6126;57.908;16.490;2023-01-28T06:32:12;102028.88;;;-2.86
12126;BMP180;6126;57.908;16.490;2023-01-28T06:34:38;102034.09;;;-2.83
12126;BMP180;6126;57.908;16.490;2023-01-28T06:37:04;102023.03;;;-2.82
12126;BMP180;6126;57.908;16.490;2023-01-28T06:39:30;102011.13;;;-2.81
12126;BMP180;6126;57.908;16.490;2023-01-28T06:41:57;101992.44;;;-2.79
12126;BMP180;6126;57.908;16.490;2023-01-28T06:44:23;101995.03;;;-2.77
12126;BMP180;6126;57.908;16.490;2023-01-28T06:46:49;102011.28;;;-2.76
12126;BMP180;6126;57.908;16.490;2023-01-28T06:49:15;102013.13;;;-2.72
12126;BMP180;6126;57.908;16.490;2023-01-28T06:51:41;102001.28;;;-2.68
12126;BMP180;6126;57.908;16.490;2023-01-28T06:54:07;102005.63;;;-2.66
12126;BMP180;6126;57.908;16.490;2023-01-28T06:56:33;102004.91;;;-2.62
12126;BMP180;6126;57.908;16.490;2023-01-28T06:58:59;101997.41;;;-2.56
12126;BMP180;6126;57.908;16.490;2023-01-28T07:01:25;101996.69;;;-2.50
12126;BMP180;6126;57.908;16.490;2023-01-28T07:03:51;102001.09;;;-2.46
12126;BMP180;6126;57.908;16.490;2023-01-28T07:06:17;102001.25;;;-2.41
12126;BMP180;6126;57.908;16.490;2023-01-28T07:08:43;102003.97;;;-2.36
12126;BMP180;6126;57.908;16.490;2023-01-28T07:11:09;102008.38;;;-2.31
12126;BMP180;6126;57.908;16.490;2023-01-28T07:13:35;102014.50;;;-2.26
12126;BMP180;6126;57.908;16.490;2023-01-28T07:16:01;102008.63;;;-2.22
12126;BMP180;6126;57.908;16.490;2023-01-28T07:18:28;102005.34;;;-2.18
12126;BMP180;6126;57.908;16.490;2023-01-28T07:20:54;102006.28;;;-2.15
12126;BMP180;6126;57.908;16.490;2023-01-28T07:23:21;102010.63;;;-2.11
12126;BMP180;6126;57.908;16.490;2023-01-28T07:25:47;101999.66;;;-2.07
12126;BMP180;6126;57.908;16.490;2023-01-28T07:28:13;102011.69;;;-2.04
12126;BMP180;6126;57.908;16.490;2023-01-28T07:30:41;101988.72;;;-2.01
12126;BMP180;6126;57.908;16.490;2023-01-28T07:33:07;101993.03;;;-1.99
12126;BMP180;6126;57.908;16.490;2023-01-28T07:35:33;101982.88;;;-1.96
12126;BMP180;6126;57.908;16.490;2023-01-28T07:38:00;101995.81;;;-1.91
12126;BMP180;6126;57.908;16.490;2023-01-28T07:40:27;101999.22;;;-1.91
12126;BMP180;6126;57.908;16.490;2023-01-28T07:42:53;101993.31;;;-1.88
12126;BMP180;6126;57.908;16.490;2023-01-28T07:45:23;102000.25;;;-1.85
12126;BMP180;6126;57.908;16.490;2023-01-28T07:48:00;101997.78;;;-1.82
12126;BMP180;6126;57.908;16.490;2023-01-28T07:50:28;102001.22;;;-1.80
12126;BMP180;6126;57.908;16.490;2023-01-28T07:52:55;102001.31;;;-1.77
12126;BMP180;6126;57.908;16.490;2023-01-28T07:55:22;101986.00;;;-1.75
12126;BMP180;6126;57.908;16.490;2023-01-28T07:57:58;102004.00;;;-1.72
12126;BMP180;6126;57.908;16.490;2023-01-28T08:00:28;101992.97;;;-1.70
12126;BMP180;6126;57.908;16.490;2023-01-28T08:03:03;101998.16;;;-1.67
12126;BMP180;6126;57.908;16.490;2023-01-28T08:05:50;102001.63;;;-1.65
12126;BMP180;6126;57.908;16.490;2023-01-28T08:08:18;101992.28;;;-1.63
12126;BMP180;6126;57.908;16.490;2023-01-28T08:10:44;101972.72;;;-1.61
12126;BMP180;6126;57.908;16.490;2023-01-28T08:13:12;101977.00;;;-1.58
12126;BMP180;6126;57.908;16.490;2023-01-28T08:15:39;101983.06;;;-1.56
12126;BMP180;6126;57.908;16.490;2023-01-28T08:18:08;101972.88;;;-1.54
12126;BMP180;6126;57.908;16.490;2023-01-28T08:20:34;101964.38;;;-1.51
12126;BMP180;6126;57.908;16.490;2023-01-28T08:23:17;101969.56;;;-1.48
12126;BMP180;6126;57.908;16.490;2023-01-28T08:25:43;101953.38;;;-1.47
12126;BMP180;6126;57.908;16.490;2023-01-28T08:28:11;101949.16;;;-1.45
12126;BMP180;6126;57.908;16.490;2023-01-28T08:30:38;101943.25;;;-1.43
12126;BMP180;6126;57.908;16.490;2023-01-28T08:33:08;101944.19;;;-1.39
12126;BMP180;6126;57.908;16.490;2023-01-28T08:35:35;101939.13;;;-1.36
12126;BMP180;6126;57.908;16.490;2023-01-28T08:38:03;101943.44;;;-1.34
12126;BMP180;6126;57.908;16.490;2023-01-28T08:40:30;101946.13;;;-1.29
12126;BMP180;6126;57.908;16.490;2023-01-28T08:42:56;101941.88;;;-1.27
12126;BMP180;6126;57.908;16.490;2023-01-28T08:45:24;101938.50;;;-1.25
12126;BMP180;6126;57.908;16.490;2023-01-28T08:47:56;101930.91;;;-1.22
12126;BMP180;6126;57.908;16.490;2023-01-28T08:50:25;101934.41;;;-1.19
12126;BMP180;6126;57.908;16.490;2023-01-28T08:52:56;101938.75;;;-1.16
12126;BMP180;6126;57.908;16.490;2023-01-28T08:55:24;101937.09;;;-1.14
12126;BMP180;6126;57.908;16.490;2023-01-28T08:57:51;101942.28;;;-1.10
12126;BMP180;6126;57.908;16.490;2023-01-28T09:00:17;101940.69;;;-1.06
12126;BMP180;6126;57.908;16.490;2023-01-28T09:02:44;101941.59;;;-1.03
12126;BMP180;6126;57.908;16.490;2023-01-28T09:05:10;101941.66;;;-1.00
12126;BMP180;6126;57.908;16.490;2023-01-28T09:07:37;101934.03;;;-0.97
12126;BMP180;6126;57.908;16.490;2023-01-28T09:10:04;101943.50;;;-0.94
12126;BMP180;6126;57.908;16.490;2023-01-28T09:12:31;101941.84;;;-0.93
12126;BMP180;6126;57.908;16.490;2023-01-28T09:14:57;101930.78;;;-0.90
12126;BMP180;6126;57.908;16.490;2023-01-28T09:17:23;101927.41;;;-0.88
12126;BMP180;6126;57.908;16.490;2023-01-28T09:19:49;101934.31;;;-0.85
12126;BMP180;6126;57.908;16.490;2023-01-28T09:22:16;101935.19;;;-0.83
12126;BMP180;6126;57.908;16.490;2023-01-28T09:24:42;101914.75;;;-0.80
12126;BMP180;6126;57.908;16.490;2023-01-28T09:27:07;101916.47;;;-0.79
12126;BMP180;6126;57.908;16.490;2023-01-28T09:29:34;101887.44;;;-0.77
12126;BMP180;6126;57.908;16.490;2023-01-28T09:32:01;101866.94;;;-0.75
12126;BMP180;6126;57.908;16.490;2023-01-28T09:34:26;101851.59;;;-0.72
12126;BMP180;6126;57.908;16.490;2023-01-28T09:36:52;101849.91;;;-0.70
12126;BMP180;6126;57.908;16.490;2023-01-28T09:39:18;101844.84;;;-0.67
12126;BMP180;6126;57.908;16.490;2023-01-28T09:47:37;101845.88;;;-0.58
12126;BMP180;6126;57.908;16.490;2023-01-28T09:50:11;101827.94;;;-0.55
12126;BMP180;6126;57.908;16.490;2023-01-28T09:52:40;101832.31;;;-0.51
12126;BMP180;6126;57.908;16.490;2023-01-28T09:55:19;101831.50;;;-0.49
12126;BMP180;6126;57.908;16.490;2023-01-28T09:57:52;101829.00;;;-0.46
12126;BMP180;6126;57.908;16.490;2023-01-28T10:00:40;101844.50;;;-0.41
12126;BMP180;6126;57.908;16.490;2023-01-28T10:15:22;101779.16;;;-0.05
12126;BMP180;6126;57.908;16.490;2023-01-28T10:17:56;101774.97;;;-0.01
12126;BMP180;6126;57.908;16.490;2023-01-28T10:20:30;101775.03;;;0.04
12126;BMP180;6126;57.908;16.490;2023-01-28T10:23:25;101763.97;;;0.08
12126;BMP180;6126;57.908;16.490;2023-01-28T10:25:58;101778.63;;;0.13
12126;BMP180;6126;57.908;16.490;2023-01-28T10:28:29;101784.75;;;0.21
12126;BMP180;6126;57.908;16.490;2023-01-28T10:30:56;101776.22;;;0.25
12126;BMP180;6126;57.908;16.490;2023-01-28T10:33:35;101781.44;;;0.31
12126;BMP180;6126;57.908;16.490;2023-01-28T10:36:03;101780.66;;;0.35
12126;BMP180;6126;57.908;16.490;2023-01-28T10:38:29;101785.03;;;0.42
12126;BMP180;6126;57.908;16.490;2023-01-28T10:41:03;101792.78;;;0.45
12126;BMP180;6126;57.908;16.490;2023-01-28T10:43:33;101764.53;;;0.48
12126;BMP180;6126;57.908;16.490;2023-01-28T10:48:31;101778.38;;;0.57
12126;BMP180;6126;57.908;16.490;2023-01-28T10:51:01;101774.16;;;0.61
12126;BMP180;6126;57.908;16.490;2023-01-28T10:53:41;101764.78;;;0.65
12126;BMP180;6126;57.908;16.490;2023-01-28T10:56:30;101758.00;;;0.70
12126;BMP180;6126;57.908;16.490;2023-01-28T10:59:17;101751.19;;;0.77
12126;BMP180;6126;57.908;16.490;2023-01-28T11:01:51;101754.66;;;0.80
12126;BMP180;6126;57.908;16.490;2023-01-28T11:04:33;101743.59;;;0.87
12126;BMP180;6126;57.908;16.490;2023-01-28T11:09:33;101756.56;;;0.96
12126;BMP180;6126;57.908;16.490;2023-01-28T11:12:12;101742.03;;;0.99
12126;BMP180;6126;57.908;16.490;2023-01-28T11:14:53;101746.38;;;1.05
12126;BMP180;6126;57.908;16.490;2023-01-28T11:17:22;101737.00;;;1.10
12126;BMP180;6126;57.908;16.490;2023-01-28T11:19:52;101733.59;;;1.14
12126;BMP180;6126;57.908;16.490;2023-01-28T11:22:32;101734.50;;;1.19
12126;BMP180;6126;57.908;16.490;2023-01-28T11:25:35;101731.16;;;1.25
12126;BMP180;6126;57.908;16.490;2023-01-28T11:28:07;101727.75;;;1.29
12126;BMP180;6126;57.908;16.490;2023-01-28T11:30:40;101732.97;;;1.35
12126;BMP180;6126;57.908;16.490;2023-01-28T11:33:20;101727.84;;;1.38
12126;BMP180;6126;57.908;16.490;2023-01-28T11:36:07;101724.47;;;1.44
12126;BMP180;6126;57.908;16.490;2023-01-28T11:38:33;101737.38;;;1.48
12126;BMP180;6126;57.908;16.490;2023-01-28T11:40:59;101735.66;;;1.50
12126;BMP180;6126;57.908;16.490;2023-01-28T11:43:30;101717.66;;;1.53
12126;BMP180;6126;57.908;16.490;2023-01-28T12:05:49;101693.06;;;1.93
12126;BMP180;6126;57.908;16.490;2023-01-28T12:11:29;101672.50;;;2.01
12126;BMP180;6126;57.908;16.490;2023-01-28T12:20:34;101666.56;;;2.18
12126;BMP180;6126;57.908;16.490;2023-01-28T12:23:33;101683.78;;;2.22
12126;BMP180;6126;57.908;16.490;2023-01-28T12:26:19;101664.03;;;2.25
12126;BMP180;6126;57.908;16.490;2023-01-28T12:40:56;101663.28;;;2.51
12126;BMP180;6126;57.908;16.490;2023-01-28T12:46:37;101654.69;;;2.55
12126;BMP180;6126;57.908;16.490;2023-01-28T12:49:52;101652.13;;;2.58
12126;BMP180;6126;57.908;16.490;2023-01-28T12:52:46;101649.53;;;2.58
12126;BMP180;6126;57.908;16.490;2023-01-28T12:55:21;101637.50;;;2.59
12126;BMP180;6126;57.908;16.490;2023-01-28T12:57:52;101641.81;;;2.58
12126;BMP180;6126;57.908;16.490;2023-01-28T13:00:37;101644.38;;;2.58
12126;BMP180;6126;57.908;16.490;2023-01-28T13:06:51;101634.06;;;2.61
12126;BMP180;6126;57.908;16.490;2023-01-28T13:09:24;101642.69;;;2.63
12126;BMP180;6126;57.908;16.490;2023-01-28T13:11:56;101640.97;;;2.65
12126;BMP180;6126;57.908;16.490;2023-01-28T13:14:28;101641.84;;;2.66
12126;BMP180;6126;57.908;16.490;2023-01-28T13:16:55;101636.66;;;2.69
12126;BMP180;6126;57.908;16.490;2023-01-28T13:19:35;101643.53;;;2.70
12126;BMP180;6126;57.908;16.490;2023-01-28T13:22:11;101634.13;;;2.70
12126;BMP180;6126;57.908;16.490;2023-01-28T13:24:38;101643.53;;;2.70
12126;BMP180;6126;57.908;16.490;2023-01-28T13:27:21;101656.47;;;2.71
12126;BMP180;6126;57.908;16.490;2023-01-28T13:29:48;101644.41;;;2.72
12126;BMP180;6126;57.908;16.490;2023-01-28T13:32:32;101641.00;;;2.77
12126;BMP180;6126;57.908;16.490;2023-01-28T13:35:28;101646.16;;;2.78
12126;BMP180;6126;57.908;16.490;2023-01-28T13:37:55;101642.72;;;2.78
12126;BMP180;6126;57.908;16.490;2023-01-28T13:40:26;101628.97;;;2.79
12126;BMP180;6126;57.908;16.490;2023-01-28T13:43:42;101628.94;;;2.80
12126;BMP180;6126;57.908;16.490;2023-01-28T13:46:26;101622.94;;;2.81
12126;BMP180;6126;57.908;16.490;2023-01-28T13:48:55;101622.94;;;2.81
12126;BMP180;6126;57.908;16.490;2023-01-28T13:51:34;101622.94;;;2.81
12126;BMP180;6126;57.908;16.490;2023-01-28T13:54:16;101623.78;;;2.82
12126;BMP180;6126;57.908;16.490;2023-01-28T13:59:53;101640.16;;;2.84
12126;BMP180;6126;57.908;16.490;2023-01-28T14:06:07;101644.44;;;2.85
12126;BMP180;6126;57.908;16.490;2023-01-28T14:17:45;101639.28;;;2.88
12126;BMP180;6126;57.908;16.490;2023-01-28T14:20:24;101634.13;;;2.88
12126;BMP180;6126;57.908;16.490;2023-01-28T14:23:01;101623.78;;;2.88
12126;BMP180;6126;57.908;16.490;2023-01-28T14:25:50;101635.00;;;2.88
12126;BMP180;6126;57.908;16.490;2023-01-28T14:31:27;101631.53;;;2.88
12126;BMP180;6126;57.908;16.490;2023-01-28T14:34:32;101608.31;;;2.88
12126;BMP180;6126;57.908;16.490;2023-01-28T14:37:11;101613.47;;;2.88
12126;BMP180;6126;57.908;16.490;2023-01-28T14:39:48;101622.09;;;2.87
12126;BMP180;6126;57.908;16.490;2023-01-28T14:42:23;101616.06;;;2.85
12126;BMP180;6126;57.908;16.490;2023-01-28T15:00:29;101639.28;;;2.85
12126;BMP180;6126;57.908;16.490;2023-01-28T15:02:56;101635.88;;;2.86
12126;BMP180;6126;57.908;16.490;2023-01-28T15:05:28;101644.47;;;2.83
12126;BMP180;6126;57.908;16.490;2023-01-28T15:07:54;101637.56;;;2.84
12126;BMP180;6126;57.908;16.490;2023-01-28T15:10:35;101646.16;;;2.81
12126;BMP180;6126;57.908;16.490;2023-01-28T15:13:24;101647.91;;;2.81
12126;BMP180;6126;57.908;16.490;2023-01-28T15:15:52;101641.00;;;2.80
12126;BMP180;6126;57.908;16.490;2023-01-28T15:18:37;101646.16;;;2.80
12126;BMP180;6126;57.908;16.490;2023-01-28T15:21:05;101645.28;;;2.76
12126;BMP180;6126;57.908;16.490;2023-01-28T15:23:36;101635.81;;;2.77
12126;BMP180;6126;57.908;16.490;2023-01-28T15:26:18;101641.00;;;2.77
12126;BMP180;6126;57.908;16.490;2023-01-28T15:28:47;101644.44;;;2.76
12126;BMP180;6126;57.908;16.490;2023-01-28T15:31:34;101641.00;;;2.76
12126;BMP180;6126;57.908;16.490;2023-01-28T15:36:39;101653.88;;;2.74
12126;BMP180;6126;57.908;16.490;2023-01-28T15:39:14;101647.00;;;2.70
12126;BMP180;6126;57.908;16.490;2023-01-28T15:41:46;101636.69;;;2.70
12126;BMP180;6126;57.908;16.490;2023-01-28T15:44:42;101647.00;;;2.69
12126;BMP180;6126;57.908;16.490;2023-01-28T15:47:33;101644.41;;;2.69
12126;BMP180;6126;57.908;16.490;2023-01-28T15:50:05;101653.00;;;2.69
12126;BMP180;6126;57.908;16.490;2023-01-28T15:52:40;101635.81;;;2.68
12126;BMP180;6126;57.908;16.490;2023-01-28T15:55:28;101640.97;;;2.68
12126;BMP180;6126;57.908;16.490;2023-01-28T15:57:55;101646.13;;;2.68
12126;BMP180;6126;57.908;16.490;2023-01-28T16:00:24;101631.50;;;2.67
12126;BMP180;6126;57.908;16.490;2023-01-28T16:02:53;101640.97;;;2.68
12126;BMP180;6126;57.908;16.490;2023-01-28T16:05:38;101641.81;;;2.67
12126;BMP180;6126;57.908;16.490;2023-01-28T16:08:25;101646.13;;;2.68
12126;BMP180;6126;57.908;16.490;2023-01-28T16:10:54;101640.97;;;2.68
12126;BMP180;6126;57.908;16.490;2023-01-28T16:13:24;101638.41;;;2.68
12126;BMP180;6126;57.908;16.490;2023-01-28T16:15:54;101636.66;;;2.67
12126;BMP180;6126;57.908;16.490;2023-01-28T16:18:43;101628.06;;;2.65
12126;BMP180;6126;57.908;16.490;2023-01-28T16:21:21;101616.03;;;2.63
12126;BMP180;6126;57.908;16.490;2023-01-28T16:24:01;101610.84;;;2.61
12126;BMP180;6126;57.908;16.490;2023-01-28T16:26:30;101605.69;;;2.60
12126;BMP180;6126;57.908;16.490;2023-01-28T16:28:56;101599.66;;;2.56
12126;BMP180;6126;57.908;16.490;2023-01-28T16:31:23;101597.94;;;2.55
12126;BMP180;6126;57.908;16.490;2023-01-28T16:33:49;101588.44;;;2.51
12126;BMP180;6126;57.908;16.490;2023-01-28T16:36:16;101579.00;;;2.47
12126;BMP180;6126;57.908;16.490;2023-01-28T16:38:44;101584.13;;;2.43
12126;BMP180;6126;57.908;16.490;2023-01-28T16:41:33;101590.16;;;2.39